Mega Smeralda — ICIU — position and weather

sailwx.info

Track history (hours):
 
Tides and Currents Weather Stations Pressure Air Temp Water Temp Dewpoint Dewpoint Depression Visibility Wind Speed Wind Dir Waves Ship Positions

Mega Smeralda

Last reported at 2015-Jul-04 07:33 UTC. Time now 2015-Jul-04 08:29 UTC.
Position N 42°51' E 009°34'.

Length 171 m; draft 6.4 m.

Type: Passenger vessel. MMSI: 247228600.

Date/timePositionNaut miles runAvg speedWind from/ knotsBaromVisibWave heightAir tempDewpointWater temp
2015-Jul-04 07:33N 42°51' E 009°34'9 4.3
2015-Jul-04 05:33N 42°43' E 009°30'1816.8
2015-Jul-04 04:30N 43°01' E 009°29'1717.6
2015-Jul-04 03:34N 43°03' E 009°07'1818.1
2015-Jul-04 02:34N 43°02' E 008°42'2018.2
2015-Jul-04 01:29N 43°01' E 008°15'1818.4
2015-Jul-04 00:30N 42°60' E 007°51'1718.3
2015-Jul-03 23:33N 42°59' E 007°27'1818.4
2015-Jul-03 22:33N 42°58' E 007°02'1818.3
2015-Jul-03 21:33N 42°57' E 006°37'1818.1
2015-Jul-03 20:34N 42°56' E 006°12'1616.0
2015-Jul-03 19:34N 43°05' E 005°55'2 1.6
2015-Jul-03 18:33N 43°07' E 005°56'7 6.6
2015-Jul-03 17:31N 43°01' E 006°01'1819.3
2015-Jul-03 16:33N 42°54' E 006°24'2020.1
2015-Jul-03 15:33N 42°52' E 006°51'2020.0
2015-Jul-03 14:33N 42°49' E 007°18'2019.8
2015-Jul-03 13:33N 42°47' E 007°45'2020.0
2015-Jul-03 12:33N 42°45' E 008°12'2019.8
2015-Jul-03 11:33N 42°42' E 008°39'1313.4
2015-Jul-03 10:33N 42°38' E 008°56'5 5.1
2015-Jul-03 09:32N 42°43' E 008°52'2120.0
2015-Jul-03 08:30N 42°56' E 008°31'1920.1
2015-Jul-03 07:33N 43°08' E 008°11'2019.9
2015-Jul-03 06:33N 43°21' E 007°50'2020.0
2015-Jul-03 05:33N 43°33' E 007°28'1211.5
2015-Jul-03 04:33N 43°42' E 007°17'2 2.3
2015-Jul-03 03:33N 43°39' E 007°18'1312.8
2015-Jul-03 02:33N 43°28' E 007°26'1313.1
2015-Jul-03 01:33N 43°16' E 007°34'1313.2
2015-Jul-03 00:33N 43°04' E 007°42'1313.1
2015-Jul-02 23:33N 42°53' E 007°49'1312.9
2015-Jul-02 22:33N 42°41' E 007°57'1313.0
2015-Jul-02 21:33N 42°29' E 008°05'1313.0
2015-Jul-02 20:33N 42°18' E 008°13'1313.0
2015-Jul-02 19:33N 42°06' E 008°20'1817.5
2015-Jul-02 18:33N 41°50' E 008°31'4 0.3
2015-Jul-02 04:10N 41°50' E 008°36'914.8
2015-Jul-02 03:33N 41°53' E 008°25'1615.7
2015-Jul-02 02:33N 42°01' E 008°07'1615.7
2015-Jul-02 01:34N 42°09' E 007°49'1615.7
2015-Jul-02 00:33N 42°18' E 007°31'1615.6
2015-Jul-01 23:33N 42°26' E 007°13'1615.7
2015-Jul-01 22:34N 42°34' E 006°56'1515.3
2015-Jul-01 21:33N 42°43' E 006°38'1817.7
2015-Jul-01 20:33N 42°52' E 006°17'1817.9
2015-Jul-01 19:33N 43°04' E 005°59'4 4.0
2015-Jul-01 18:33N 43°07' E 005°56'0 0.0
2015-Jul-01 17:33N 43°07' E 005°56'0 0.0
2015-Jul-01 16:33N 43°07' E 005°56'0 0.0
2015-Jul-01 15:34N 43°07' E 005°56'0 0.5
2015-Jul-01 14:33N 43°07' E 005°55'1514.8
2015-Jul-01 13:33N 42°56' E 006°09'1919.0
2015-Jul-01 12:33N 42°45' E 006°31'2118.2
2015-Jul-01 11:25N 42°35' E 006°55'1618.4
2015-Jul-01 10:33N 42°26' E 007°13'1818.5
2015-Jul-01 09:33N 42°16' E 007°34'1918.4
2015-Jul-01 08:33N 42°06' E 007°55'1515.2
2015-Jul-01 07:34N 41°58' E 008°13'1818.2
2015-Jul-01 06:33N 41°50' E 008°34'6 2.6
2015-Jul-01 04:27N 41°52' E 008°41'1314.5
2015-Jul-01 03:33N 41°53' E 008°23'1816.2
2015-Jul-01 02:27N 42°03' E 008°03'1616.4
2015-Jul-01 01:29N 42°11' E 007°45'1516.5
2015-Jul-01 00:33N 42°19' E 007°28'1616.3
2015-Jun-30 23:33N 42°28' E 007°09'1716.6
2015-Jun-30 22:33N 42°37' E 006°50'1716.7
2015-Jun-30 21:33N 42°46' E 006°31'1616.2
2015-Jun-30 20:32N 42°54' E 006°12'1515.5
2015-Jun-30 19:33N 43°05' E 005°57'2 2.0
2015-Jun-30 18:34N 43°07' E 005°56'0 0.0
2015-Jun-30 17:33N 43°07' E 005°56'1211.7
2015-Jun-30 16:33N 42°58' E 006°06'1817.8
2015-Jun-30 15:33N 42°48' E 006°26'1818.2
2015-Jun-30 14:33N 42°38' E 006°47'1918.6
2015-Jun-30 13:31N 42°28' E 007°09'1818.8
2015-Jun-30 12:33N 42°18' E 007°30'1918.7
2015-Jun-30 11:34N 42°08' E 007°51'1918.5
2015-Jun-30 10:33N 41°59' E 008°12'1918.5
2015-Jun-30 09:33N 41°49' E 008°34'2 0.3
2015-Jun-30 04:27N 41°49' E 008°36'1516.6
2015-Jun-30 03:33N 41°56' E 008°18'1717.2
2015-Jun-30 02:32N 42°05' E 007°58'1717.2
2015-Jun-30 01:33N 42°14' E 007°39'1717.5
2015-Jun-30 00:33N 42°23' E 007°19'1717.1
2015-Jun-29 23:33N 42°33' E 006°60'1717.1
2015-Jun-29 22:33N 42°42' E 006°40'1717.0
2015-Jun-29 21:34N 42°51' E 006°20'1716.7
2015-Jun-29 20:33N 43°01' E 006°02'8 7.7
2015-Jun-29 19:33N 43°07' E 005°56'2 1.0
2015-Jun-29 17:22N 43°05' E 005°58'1316.5
2015-Jun-29 16:34N 42°55' E 006°10'1817.6
2015-Jun-29 15:33N 42°46' E 006°30'1817.6
2015-Jun-29 14:33N 42°37' E 006°51'4018.0
2015-Jun-29 12:19N 42°15' E 007°37'1418.1
2015-Jun-29 11:34N 42°08' E 007°52'35 3.5
2015-Jun-29 01:32N 42°27' E 007°13'1818.5
2015-Jun-29 00:33N 42°36' E 006°52'1919.0
2015-Jun-28 23:33N 42°46' E 006°30'1918.6
2015-Jun-28 22:33N 42°56' E 006°08'1414.1
2015-Jun-28 21:33N 43°07' E 005°56'0 0.1
2015-Jun-28 20:33N 43°07' E 005°56'1110.8
2015-Jun-28 19:33N 42°58' E 006°04'2219.9
2015-Jun-28 18:26N 42°53' E 006°34'2019.9
2015-Jun-28 17:25N 42°51' E 007°01'1719.4
2015-Jun-28 16:33N 42°49' E 007°24'2019.7
2015-Jun-28 15:33N 42°46' E 007°51'2019.7
2015-Jun-28 14:33N 42°44' E 008°17'2019.7
2015-Jun-28 13:33N 42°42' E 008°44'10 9.6
2015-Jun-28 12:33N 42°38' E 008°56'5016.6
2015-Jun-28 09:33N 42°47' E 007°49'5819.2
2015-Jun-28 06:33N 42°54' E 006°31'1818.3
2015-Jun-28 05:33N 42°57' E 006°07'1312.8
2015-Jun-28 04:33N 43°07' E 005°56'1 1.4
2015-Jun-28 03:33N 43°06' E 005°55'1615.7
2015-Jun-28 02:33N 42°55' E 006°11'2019.6
2015-Jun-28 01:33N 42°56' E 006°38'2020.3
2015-Jun-28 00:33N 42°57' E 007°06'4119.7
2015-Jun-27 22:30N 42°60' E 008°01'1819.2
2015-Jun-27 21:33N 43°01' E 008°26'2018.6
2015-Jun-27 20:28N 43°02' E 008°53'1718.6
2015-Jun-27 19:33N 43°03' E 009°17'1615.7
2015-Jun-27 18:33N 42°52' E 009°32'11 4.8
2015-Jun-27 16:12N 42°42' E 009°27'1016.1
2015-Jun-27 15:34N 42°48' E 009°38'1817.4
2015-Jun-27 14:31N 42°60' E 009°57'1818.3
2015-Jun-27 13:34N 43°16' E 010°05'1717.0
2015-Jun-27 12:33N 43°32' E 010°15'2 2.3
2015-Jun-27 11:33N 43°33' E 010°18'3 3.1
2015-Jun-27 10:33N 43°31' E 010°15'1817.6
2015-Jun-27 09:33N 43°18' E 009°58'1817.7
2015-Jun-27 08:32N 43°05' E 009°42'1817.9
2015-Jun-27 07:33N 42°48' E 009°33'2 0.9
2015-Jun-27 05:32N 42°47' E 009°32'1815.7
2015-Jun-27 04:24N 43°03' E 009°23'1517.7
2015-Jun-27 03:33N 43°03' E 009°03'3718.1
2015-Jun-27 01:31N 43°01' E 008°12'1718.2
2015-Jun-27 00:33N 42°60' E 007°48'1918.6
2015-Jun-26 23:33N 42°59' E 007°23'1918.5
2015-Jun-26 22:32N 42°57' E 006°57'1818.2
2015-Jun-26 21:34N 42°56' E 006°33'1818.0
2015-Jun-26 20:34N 42°57' E 006°08'1413.9
2015-Jun-26 19:34N 43°07' E 005°56'0 0.0
2015-Jun-26 18:34N 43°07' E 005°56'10 8.0
2015-Jun-26 17:22N 42°59' E 006°03'1619.9
2015-Jun-26 16:33N 42°54' E 006°24'4420.2
2015-Jun-26 14:22N 42°49' E 007°24'1819.9
2015-Jun-26 13:26N 42°47' E 007°49'1919.8
2015-Jun-26 12:28N 42°44' E 008°15'1819.6
2015-Jun-26 11:33N 42°42' E 008°39'1313.2
2015-Jun-26 10:34N 42°38' E 008°56'2412.0
2015-Jun-26 08:33N 42°55' E 008°32'2020.4
2015-Jun-26 07:33N 43°08' E 008°11'2020.2
2015-Jun-26 06:33N 43°21' E 007°49'2019.8
2015-Jun-26 05:33N 43°33' E 007°29'1211.8
2015-Jun-26 04:33N 43°42' E 007°17'3 2.9
2015-Jun-26 03:33N 43°39' E 007°19'1212.6
2015-Jun-26 02:33N 43°28' E 007°26'2713.6
2015-Jun-26 00:33N 43°03' E 007°42'1413.6
2015-Jun-25 23:34N 42°51' E 007°50'1413.5
2015-Jun-25 22:33N 42°39' E 007°58'1313.4
2015-Jun-25 21:33N 42°27' E 008°07'1313.2
2015-Jun-25 20:33N 42°15' E 008°14'1515.0
2015-Jun-25 19:33N 42°02' E 008°23'1514.6
2015-Jun-25 18:32N 41°50' E 008°35'50 8.0
2015-Jun-25 12:18N 42°15' E 007°37'1317.7
2015-Jun-25 11:33N 42°22' E 007°22'1818.0
2015-Jun-25 10:33N 42°32' E 007°01'5417.9
2015-Jun-25 07:33N 43°02' E 006°01'6 5.8
2015-Jun-25 06:33N 43°07' E 005°56'0 0.0
2015-Jun-25 05:33N 43°07' E 005°56'3611.9
2015-Jun-25 02:33N 42°44' E 006°34'34 2.0
2015-Jun-24 09:33N 43°05' E 005°57'2 1.9
2015-Jun-24 08:33N 43°07' E 005°56'  
Track history (hours):
 
Tides and Currents Weather Stations Pressure Air Temp Water Temp Dewpoint Dewpoint Depression Visibility Wind Speed Wind Dir Waves Ship Positions

Mega Smeralda

Last reported at 2015-Jul-04 07:33 UTC. Time now 2015-Jul-04 08:29 UTC.
Position N 42°51' E 009°34'.

Length 171 m; draft 6.4 m.

Type: Passenger vessel. MMSI: 247228600.

Date/timePositionNaut miles runAvg speedWind from/ knotsBaromVisibWave heightAir tempDewpointWater temp
2015-Jul-04 07:33N 42°51' E 009°34'9 4.3
2015-Jul-04 05:33N 42°43' E 009°30'1816.8
2015-Jul-04 04:30N 43°01' E 009°29'1717.6
2015-Jul-04 03:34N 43°03' E 009°07'1818.1
2015-Jul-04 02:34N 43°02' E 008°42'2018.2
2015-Jul-04 01:29N 43°01' E 008°15'1818.4
2015-Jul-04 00:30N 42°60' E 007°51'1718.3
2015-Jul-03 23:33N 42°59' E 007°27'1818.4
2015-Jul-03 22:33N 42°58' E 007°02'1818.3
2015-Jul-03 21:33N 42°57' E 006°37'1818.1
2015-Jul-03 20:34N 42°56' E 006°12'1616.0
2015-Jul-03 19:34N 43°05' E 005°55'2 1.6
2015-Jul-03 18:33N 43°07' E 005°56'7 6.6
2015-Jul-03 17:31N 43°01' E 006°01'1819.3
2015-Jul-03 16:33N 42°54' E 006°24'2020.1
2015-Jul-03 15:33N 42°52' E 006°51'2020.0
2015-Jul-03 14:33N 42°49' E 007°18'2019.8
2015-Jul-03 13:33N 42°47' E 007°45'2020.0
2015-Jul-03 12:33N 42°45' E 008°12'2019.8
2015-Jul-03 11:33N 42°42' E 008°39'1313.4
2015-Jul-03 10:33N 42°38' E 008°56'5 5.1
2015-Jul-03 09:32N 42°43' E 008°52'2120.0
2015-Jul-03 08:30N 42°56' E 008°31'1920.1
2015-Jul-03 07:33N 43°08' E 008°11'2019.9
2015-Jul-03 06:33N 43°21' E 007°50'2020.0
2015-Jul-03 05:33N 43°33' E 007°28'1211.5
2015-Jul-03 04:33N 43°42' E 007°17'2 2.3
2015-Jul-03 03:33N 43°39' E 007°18'1312.8
2015-Jul-03 02:33N 43°28' E 007°26'1313.1
2015-Jul-03 01:33N 43°16' E 007°34'1313.2
2015-Jul-03 00:33N 43°04' E 007°42'1313.1
2015-Jul-02 23:33N 42°53' E 007°49'1312.9
2015-Jul-02 22:33N 42°41' E 007°57'1313.0
2015-Jul-02 21:33N 42°29' E 008°05'1313.0
2015-Jul-02 20:33N 42°18' E 008°13'1313.0
2015-Jul-02 19:33N 42°06' E 008°20'1817.5
2015-Jul-02 18:33N 41°50' E 008°31'4 0.3
2015-Jul-02 04:10N 41°50' E 008°36'914.8
2015-Jul-02 03:33N 41°53' E 008°25'1615.7
2015-Jul-02 02:33N 42°01' E 008°07'1615.7
2015-Jul-02 01:34N 42°09' E 007°49'1615.7
2015-Jul-02 00:33N 42°18' E 007°31'1615.6
2015-Jul-01 23:33N 42°26' E 007°13'1615.7
2015-Jul-01 22:34N 42°34' E 006°56'1515.3
2015-Jul-01 21:33N 42°43' E 006°38'1817.7
2015-Jul-01 20:33N 42°52' E 006°17'1817.9
2015-Jul-01 19:33N 43°04' E 005°59'4 4.0
2015-Jul-01 18:33N 43°07' E 005°56'0 0.0
2015-Jul-01 17:33N 43°07' E 005°56'0 0.0
2015-Jul-01 16:33N 43°07' E 005°56'0 0.0
2015-Jul-01 15:34N 43°07' E 005°56'0 0.5
2015-Jul-01 14:33N 43°07' E 005°55'1514.8
2015-Jul-01 13:33N 42°56' E 006°09'1919.0
2015-Jul-01 12:33N 42°45' E 006°31'2118.2
2015-Jul-01 11:25N 42°35' E 006°55'1618.4
2015-Jul-01 10:33N 42°26' E 007°13'1818.5
2015-Jul-01 09:33N 42°16' E 007°34'1918.4
2015-Jul-01 08:33N 42°06' E 007°55'1515.2
2015-Jul-01 07:34N 41°58' E 008°13'1818.2
2015-Jul-01 06:33N 41°50' E 008°34'6 2.6
2015-Jul-01 04:27N 41°52' E 008°41'1314.5
2015-Jul-01 03:33N 41°53' E 008°23'1816.2
2015-Jul-01 02:27N 42°03' E 008°03'1616.4
2015-Jul-01 01:29N 42°11' E 007°45'1516.5
2015-Jul-01 00:33N 42°19' E 007°28'1616.3
2015-Jun-30 23:33N 42°28' E 007°09'1716.6
2015-Jun-30 22:33N 42°37' E 006°50'1716.7
2015-Jun-30 21:33N 42°46' E 006°31'1616.2
2015-Jun-30 20:32N 42°54' E 006°12'1515.5
2015-Jun-30 19:33N 43°05' E 005°57'2 2.0
2015-Jun-30 18:34N 43°07' E 005°56'0 0.0
2015-Jun-30 17:33N 43°07' E 005°56'1211.7
2015-Jun-30 16:33N 42°58' E 006°06'1817.8
2015-Jun-30 15:33N 42°48' E 006°26'1818.2
2015-Jun-30 14:33N 42°38' E 006°47'1918.6
2015-Jun-30 13:31N 42°28' E 007°09'1818.8
2015-Jun-30 12:33N 42°18' E 007°30'1918.7
2015-Jun-30 11:34N 42°08' E 007°51'1918.5
2015-Jun-30 10:33N 41°59' E 008°12'1918.5
2015-Jun-30 09:33N 41°49' E 008°34'2 0.3
2015-Jun-30 04:27N 41°49' E 008°36'1516.6
2015-Jun-30 03:33N 41°56' E 008°18'1717.2
2015-Jun-30 02:32N 42°05' E 007°58'1717.2
2015-Jun-30 01:33N 42°14' E 007°39'1717.5
2015-Jun-30 00:33N 42°23' E 007°19'1717.1
2015-Jun-29 23:33N 42°33' E 006°60'1717.1
2015-Jun-29 22:33N 42°42' E 006°40'1717.0
2015-Jun-29 21:34N 42°51' E 006°20'1716.7
2015-Jun-29 20:33N 43°01' E 006°02'8 7.7
2015-Jun-29 19:33N 43°07' E 005°56'2 1.0
2015-Jun-29 17:22N 43°05' E 005°58'1316.5
2015-Jun-29 16:34N 42°55' E 006°10'1817.6
2015-Jun-29 15:33N 42°46' E 006°30'1817.6
2015-Jun-29 14:33N 42°37' E 006°51'4018.0
2015-Jun-29 12:19N 42°15' E 007°37'1418.1
2015-Jun-29 11:34N 42°08' E 007°52'35 3.5
2015-Jun-29 01:32N 42°27' E 007°13'1818.5
2015-Jun-29 00:33N 42°36' E 006°52'1919.0
2015-Jun-28 23:33N 42°46' E 006°30'1918.6
2015-Jun-28 22:33N 42°56' E 006°08'1414.1
2015-Jun-28 21:33N 43°07' E 005°56'0 0.1
2015-Jun-28 20:33N 43°07' E 005°56'1110.8
2015-Jun-28 19:33N 42°58' E 006°04'2219.9
2015-Jun-28 18:26N 42°53' E 006°34'2019.9
2015-Jun-28 17:25N 42°51' E 007°01'1719.4
2015-Jun-28 16:33N 42°49' E 007°24'2019.7
2015-Jun-28 15:33N 42°46' E 007°51'2019.7
2015-Jun-28 14:33N 42°44' E 008°17'2019.7
2015-Jun-28 13:33N 42°42' E 008°44'10 9.6
2015-Jun-28 12:33N 42°38' E 008°56'5016.6
2015-Jun-28 09:33N 42°47' E 007°49'5819.2
2015-Jun-28 06:33N 42°54' E 006°31'1818.3
2015-Jun-28 05:33N 42°57' E 006°07'1312.8
2015-Jun-28 04:33N 43°07' E 005°56'1 1.4
2015-Jun-28 03:33N 43°06' E 005°55'1615.7
2015-Jun-28 02:33N 42°55' E 006°11'2019.6
2015-Jun-28 01:33N 42°56' E 006°38'2020.3
2015-Jun-28 00:33N 42°57' E 007°06'4119.7
2015-Jun-27 22:30N 42°60' E 008°01'1819.2
2015-Jun-27 21:33N 43°01' E 008°26'2018.6
2015-Jun-27 20:28N 43°02' E 008°53'1718.6
2015-Jun-27 19:33N 43°03' E 009°17'1615.7
2015-Jun-27 18:33N 42°52' E 009°32'11 4.8
2015-Jun-27 16:12N 42°42' E 009°27'1016.1
2015-Jun-27 15:34N 42°48' E 009°38'1817.4
2015-Jun-27 14:31N 42°60' E 009°57'1818.3
2015-Jun-27 13:34N 43°16' E 010°05'1717.0
2015-Jun-27 12:33N 43°32' E 010°15'2 2.3
2015-Jun-27 11:33N 43°33' E 010°18'3 3.1
2015-Jun-27 10:33N 43°31' E 010°15'1817.6
2015-Jun-27 09:33N 43°18' E 009°58'1817.7
2015-Jun-27 08:32N 43°05' E 009°42'1817.9
2015-Jun-27 07:33N 42°48' E 009°33'2 0.9
2015-Jun-27 05:32N 42°47' E 009°32'1815.7
2015-Jun-27 04:24N 43°03' E 009°23'1517.7
2015-Jun-27 03:33N 43°03' E 009°03'3718.1
2015-Jun-27 01:31N 43°01' E 008°12'1718.2
2015-Jun-27 00:33N 42°60' E 007°48'1918.6
2015-Jun-26 23:33N 42°59' E 007°23'1918.5
2015-Jun-26 22:32N 42°57' E 006°57'1818.2
2015-Jun-26 21:34N 42°56' E 006°33'1818.0
2015-Jun-26 20:34N 42°57' E 006°08'1413.9
2015-Jun-26 19:34N 43°07' E 005°56'0 0.0
2015-Jun-26 18:34N 43°07' E 005°56'10 8.0
2015-Jun-26 17:22N 42°59' E 006°03'1619.9
2015-Jun-26 16:33N 42°54' E 006°24'4420.2
2015-Jun-26 14:22N 42°49' E 007°24'1819.9
2015-Jun-26 13:26N 42°47' E 007°49'1919.8
2015-Jun-26 12:28N 42°44' E 008°15'1819.6
2015-Jun-26 11:33N 42°42' E 008°39'1313.2
2015-Jun-26 10:34N 42°38' E 008°56'2412.0
2015-Jun-26 08:33N 42°55' E 008°32'2020.4
2015-Jun-26 07:33N 43°08' E 008°11'2020.2
2015-Jun-26 06:33N 43°21' E 007°49'2019.8
2015-Jun-26 05:33N 43°33' E 007°29'1211.8
2015-Jun-26 04:33N 43°42' E 007°17'3 2.9
2015-Jun-26 03:33N 43°39' E 007°19'1212.6
2015-Jun-26 02:33N 43°28' E 007°26'2713.6
2015-Jun-26 00:33N 43°03' E 007°42'1413.6
2015-Jun-25 23:34N 42°51' E 007°50'1413.5
2015-Jun-25 22:33N 42°39' E 007°58'1313.4
2015-Jun-25 21:33N 42°27' E 008°07'1313.2
2015-Jun-25 20:33N 42°15' E 008°14'1515.0
2015-Jun-25 19:33N 42°02' E 008°23'1514.6
2015-Jun-25 18:32N 41°50' E 008°35'50 8.0
2015-Jun-25 12:18N 42°15' E 007°37'1317.7
2015-Jun-25 11:33N 42°22' E 007°22'1818.0
2015-Jun-25 10:33N 42°32' E 007°01'5417.9
2015-Jun-25 07:33N 43°02' E 006°01'6 5.8
2015-Jun-25 06:33N 43°07' E 005°56'0 0.0
2015-Jun-25 05:33N 43°07' E 005°56'3611.9
2015-Jun-25 02:33N 42°44' E 006°34'34 2.0
2015-Jun-24 09:33N 43°05' E 005°57'2 1.9
2015-Jun-24 08:33N 43°07' E 005°56'  

Dump ship's entire track history